Time;durP1;ratioP1;P1;durP2;ratioP2;P2;SDS_P1;SDS_P2;PMS_P1;PMS_P2;Temp;Humidity;BMP_temperature;BMP_pressure;BME280_temperature;BME280_humidity;BME280_pressure;Samples;Min_cycle;Max_cycle;Signal;HPM_P1;HPM_P2
2023/05/09 00:01:14;;;;;;;4.53;2.85;;;;;;;;;;5007429;28;20387;-62
2023/05/09 00:03:43;;;;;;;5.03;2.28;;;;;;;;;;5015594;28;20200;-60
2023/05/09 00:06:12;;;;;;;6.78;2.45;;;;;;;;;;5009497;28;20132;-60
2023/05/09 00:08:41;;;;;;;5.10;1.60;;;;;;;;;;5010283;28;20053;-62
2023/05/09 00:11:09;;;;;;;8.40;2.60;;;;;;;;;;5010372;28;20046;-60
2023/05/09 00:13:37;;;;;;;5.22;2.00;;;;;;;;;;5011038;28;20545;-65
2023/05/09 00:16:08;;;;;;;4.75;1.77;;;;;;;;;;5009481;28;20056;-60
2023/05/09 00:18:36;;;;;;;4.13;2.25;;;;;;;;;;5012725;28;20494;-61
2023/05/09 00:21:05;;;;;;;6.55;3.20;;;;;;;;;;5007646;28;20064;-63
2023/05/09 00:23:33;;;;;;;6.20;1.98;;;;;;;;;;5006660;28;20037;-60
2023/05/09 00:26:01;;;;;;;8.98;2.75;;;;;;;;;;5011471;28;20052;-61
2023/05/09 00:28:30;;;;;;;5.65;2.38;;;;;;;;;;5012332;28;20049;-61
2023/05/09 00:30:58;;;;;;;10.20;2.38;;;;;;;;;;5008915;28;20045;-61
2023/05/09 00:33:28;;;;;;;5.68;2.60;;;;;;;;;;5014040;28;20042;-60
2023/05/09 00:35:56;;;;;;;4.78;1.70;;;;;;;;;;5011182;28;20425;-62
2023/05/09 00:38:24;;;;;;;5.35;1.92;;;;;;;;;;5015164;28;20046;-61
2023/05/09 00:40:53;;;;;;;7.78;2.30;;;;;;;;;;5012054;28;20518;-60
2023/05/09 00:43:21;;;;;;;1.88;1.58;;;;;;;;;;5011721;28;20506;-60
2023/05/09 00:45:50;;;;;;;3.15;1.83;;;;;;;;;;5008339;28;20057;-64
2023/05/09 00:48:19;;;;;;;7.45;2.05;;;;;;;;;;5018524;28;20050;-62
2023/05/09 00:50:51;;;;;;;4.93;1.95;;;;;;;;;;5007239;28;20053;-60
2023/05/09 00:53:20;;;;;;;4.13;2.05;;;;;;;;;;5011705;28;20058;-61
2023/05/09 00:55:48;;;;;;;7.43;2.30;;;;;;;;;;5002797;28;20054;-61
2023/05/09 00:58:18;;;;;;;5.95;2.20;;;;;;;;;;5008914;28;20046;-61
2023/05/09 01:00:46;;;;;;;5.07;2.00;;;;;;;;;;5013709;28;20490;-65
2023/05/09 01:03:15;;;;;;;6.35;3.22;;;;;;;;;;5021829;23;20499;-64
2023/05/09 01:05:49;;;;;;;7.93;3.72;;;;;;;;;;5071124;28;20076;-65
2023/05/09 01:08:26;;;;;;;5.78;3.17;;;;;;;;;;5072815;28;20048;-63
2023/05/09 01:10:58;;;;;;;5.57;2.17;;;;;;;;;;5073779;28;20488;-65
2023/05/09 01:13:28;;;;;;;6.75;2.38;;;;;;;;;;5072922;28;20080;-62
2023/05/09 01:16:04;;;;;;;3.75;2.00;;;;;;;;;;5072542;28;20478;-63
2023/05/09 01:18:35;;;;;;;5.10;2.35;;;;;;;;;;5072954;28;20128;-63
2023/05/09 01:21:06;;;;;;;6.65;2.38;;;;;;;;;;5072586;28;20390;-63
2023/05/09 01:23:51;;;;;;;20.13;3.38;;;;;;;;;;5072797;28;20052;-62
2023/05/09 01:26:21;;;;;;;6.82;2.72;;;;;;;;;;5072380;28;20511;-62
2023/05/09 01:29:01;;;;;;;7.65;2.95;;;;;;;;;;5072270;28;20489;-67
2023/05/09 01:31:32;;;;;;;5.03;2.22;;;;;;;;;;5071656;28;20542;-63
2023/05/09 01:34:03;;;;;;;10.90;3.22;;;;;;;;;;5064510;28;20097;-64
2023/05/09 01:36:32;;;;;;;6.13;2.40;;;;;;;;;;5064237;28;20127;-62
2023/05/09 01:39:03;;;;;;;4.88;2.10;;;;;;;;;;5065801;28;20044;-64
2023/05/09 01:41:32;;;;;;;4.35;2.83;;;;;;;;;;5065171;28;20404;-66
2023/05/09 01:44:02;;;;;;;4.40;2.30;;;;;;;;;;5064466;28;20464;-62
2023/05/09 01:46:32;;;;;;;7.50;2.20;;;;;;;;;;5058950;28;20094;-63
2023/05/09 01:49:01;;;;;;;5.60;2.38;;;;;;;;;;5063575;28;20404;-64
2023/05/09 01:51:31;;;;;;;4.82;2.58;;;;;;;;;;5059897;28;20049;-62
2023/05/09 01:54:00;;;;;;;3.85;2.15;;;;;;;;;;5062902;28;20054;-64
2023/05/09 01:56:29;;;;;;;6.47;2.72;;;;;;;;;;5063438;28;20135;-64
2023/05/09 01:58:58;;;;;;;5.28;2.88;;;;;;;;;;5060380;28;20055;-63
2023/05/09 02:01:27;;;;;;;3.25;1.45;;;;;;;;;;5065184;28;20055;-64
2023/05/09 02:03:57;;;;;;;8.80;2.15;;;;;;;;;;5061884;28;20114;-63
2023/05/09 02:06:28;;;;;;;6.80;2.45;;;;;;;;;;5062461;28;20047;-62
2023/05/09 02:08:57;;;;;;;4.75;2.03;;;;;;;;;;5069252;28;20045;-63
2023/05/09 02:11:25;;;;;;;4.22;1.98;;;;;;;;;;5062748;28;20140;-62
2023/05/09 02:13:54;;;;;;;6.78;2.67;;;;;;;;;;5066641;28;20059;-62
2023/05/09 02:16:22;;;;;;;3.38;1.75;;;;;;;;;;5064601;28;20036;-63
2023/05/09 02:18:51;;;;;;;2.63;1.65;;;;;;;;;;5067965;28;20059;-63
2023/05/09 02:21:21;;;;;;;5.50;2.88;;;;;;;;;;5066195;28;20224;-63
2023/05/09 02:23:49;;;;;;;3.38;2.08;;;;;;;;;;5066073;28;20049;-63
2023/05/09 02:26:18;;;;;;;10.10;2.70;;;;;;;;;;5067525;28;20040;-65
2023/05/09 02:28:47;;;;;;;6.95;2.33;;;;;;;;;;5068204;28;20052;-62
2023/05/09 02:31:17;;;;;;;7.63;2.38;;;;;;;;;;5064930;28;20399;-62
2023/05/09 02:33:46;;;;;;;7.53;2.58;;;;;;;;;;5068274;28;20056;-63
2023/05/09 02:36:15;;;;;;;12.95;2.78;;;;;;;;;;5066426;28;20052;-62
2023/05/09 02:38:45;;;;;;;6.18;2.80;;;;;;;;;;5067496;28;20132;-62
2023/05/09 02:41:14;;;;;;;4.22;1.63;;;;;;;;;;5064027;28;20044;-64
2023/05/09 02:43:42;;;;;;;3.85;1.80;;;;;;;;;;5066733;28;20041;-62
2023/05/09 02:46:11;;;;;;;5.35;2.15;;;;;;;;;;5063809;28;20052;-62
2023/05/09 02:48:39;;;;;;;8.52;3.08;;;;;;;;;;5062130;28;20052;-62
2023/05/09 02:51:08;;;;;;;9.93;3.00;;;;;;;;;;5064963;28;20394;-62
2023/05/09 02:53:36;;;;;;;9.52;3.03;;;;;;;;;;5067895;28;20462;-66
2023/05/09 02:56:06;;;;;;;7.75;2.35;;;;;;;;;;5061318;28;20049;-63
2023/05/09 02:58:34;;;;;;;6.65;2.08;;;;;;;;;;5063976;28;20052;-63
2023/05/09 03:01:03;;;;;;;6.30;2.13;;;;;;;;;;5067733;28;20037;-62
2023/05/09 03:03:32;;;;;;;5.40;2.15;;;;;;;;;;5066110;28;20040;-62
2023/05/09 03:06:01;;;;;;;7.90;3.15;;;;;;;;;;5066239;28;20079;-64
2023/05/09 03:08:29;;;;;;;7.82;2.22;;;;;;;;;;5067692;28;20074;-63
2023/05/09 03:10:58;;;;;;;8.80;3.40;;;;;;;;;;5066538;28;20045;-63
2023/05/09 03:13:27;;;;;;;6.43;2.85;;;;;;;;;;5063313;28;20052;-63
2023/05/09 03:15:56;;;;;;;9.48;2.03;;;;;;;;;;5063234;28;20098;-63
2023/05/09 03:18:24;;;;;;;10.73;3.28;;;;;;;;;;5066452;28;20055;-63
2023/05/09 03:20:53;;;;;;;9.68;2.63;;;;;;;;;;5065160;28;20048;-63
2023/05/09 03:23:22;;;;;;;6.20;2.85;;;;;;;;;;5061781;28;20052;-64
2023/05/09 03:25:50;;;;;;;4.03;2.10;;;;;;;;;;5064844;28;20044;-62
2023/05/09 03:28:18;;;;;;;6.40;2.30;;;;;;;;;;5060885;28;20049;-63
2023/05/09 03:30:48;;;;;;;5.85;2.33;;;;;;;;;;5065721;28;20050;-62
2023/05/09 03:33:16;;;;;;;10.65;3.17;;;;;;;;;;5067610;28;20083;-63
2023/05/09 03:35:45;;;;;;;6.25;2.70;;;;;;;;;;5060775;28;20136;-62
2023/05/09 03:38:13;;;;;;;4.95;2.33;;;;;;;;;;5063551;28;20049;-63
2023/05/09 03:40:41;;;;;;;6.72;2.92;;;;;;;;;;5067387;28;20064;-62
2023/05/09 03:43:10;;;;;;;3.60;1.95;;;;;;;;;;5066174;28;20127;-63
2023/05/09 03:45:38;;;;;;;5.45;1.75;;;;;;;;;;5065046;28;20503;-62
2023/05/09 03:48:08;;;;;;;7.53;2.50;;;;;;;;;;5063600;28;20148;-61
2023/05/09 03:50:37;;;;;;;7.90;2.90;;;;;;;;;;5063861;28;20572;-62
2023/05/09 03:53:05;;;;;;;5.43;2.22;;;;;;;;;;5067577;28;20060;-62
2023/05/09 03:55:33;;;;;;;4.95;2.00;;;;;;;;;;5066096;28;20068;-63
2023/05/09 03:58:02;;;;;;;6.63;2.60;;;;;;;;;;5065968;28;20040;-65
2023/05/09 04:00:30;;;;;;;9.15;2.85;;;;;;;;;;5063399;28;20045;-62
2023/05/09 04:02:58;;;;;;;7.78;3.08;;;;;;;;;;5066384;28;20051;-64
2023/05/09 04:05:28;;;;;;;7.95;2.75;;;;;;;;;;5066068;28;20136;-63
2023/05/09 04:07:56;;;;;;;9.43;2.75;;;;;;;;;;5064859;28;20406;-63
2023/05/09 04:10:25;;;;;;;6.47;2.17;;;;;;;;;;5060469;28;20044;-64
2023/05/09 04:12:53;;;;;;;6.72;1.73;;;;;;;;;;5062455;28;20041;-63
2023/05/09 04:15:21;;;;;;;4.78;2.40;;;;;;;;;;5059622;28;20049;-62
2023/05/09 04:17:50;;;;;;;3.70;2.10;;;;;;;;;;5060085;28;20835;-62
2023/05/09 04:20:18;;;;;;;6.15;2.05;;;;;;;;;;5058754;28;20050;-62
2023/05/09 04:22:48;;;;;;;4.10;2.05;;;;;;;;;;5066068;28;20052;-63
2023/05/09 04:25:16;;;;;;;6.00;2.42;;;;;;;;;;5062457;28;20056;-63
2023/05/09 04:27:45;;;;;;;6.88;2.55;;;;;;;;;;5063212;28;20056;-63
2023/05/09 04:30:13;;;;;;;5.95;3.20;;;;;;;;;;5063280;28;20042;-62
2023/05/09 04:32:44;;;;;;;12.05;2.65;;;;;;;;;;5056304;28;20049;-63
2023/05/09 04:35:13;;;;;;;5.38;3.25;;;;;;;;;;5059301;28;20048;-64
2023/05/09 04:37:42;;;;;;;6.97;2.47;;;;;;;;;;5057240;28;20047;-63
2023/05/09 04:40:13;;;;;;;7.68;2.15;;;;;;;;;;5057235;28;20536;-62
2023/05/09 04:42:42;;;;;;;6.70;2.72;;;;;;;;;;5066858;28;20080;-62
2023/05/09 04:45:11;;;;;;;8.13;3.15;;;;;;;;;;5063473;28;20036;-63
2023/05/09 04:47:39;;;;;;;8.27;2.47;;;;;;;;;;5059336;28;20282;-63
2023/05/09 04:50:08;;;;;;;5.13;1.88;;;;;;;;;;5060071;28;20067;-63
2023/05/09 04:52:37;;;;;;;8.27;3.70;;;;;;;;;;5059628;28;20046;-63
2023/05/09 04:55:05;;;;;;;4.15;2.25;;;;;;;;;;5061426;28;20084;-63
2023/05/09 04:57:35;;;;;;;4.18;2.05;;;;;;;;;;5064920;28;20048;-65
2023/05/09 05:00:05;;;;;;;4.07;2.25;;;;;;;;;;5057684;28;20494;-62
2023/05/09 05:02:34;;;;;;;5.07;2.08;;;;;;;;;;5056176;28;20045;-64
2023/05/09 05:05:02;;;;;;;8.48;2.55;;;;;;;;;;5020023;28;1085307;-63
2023/05/09 05:07:39;;;;;;;7.88;2.15;;;;;;;;;;5065534;28;20048;-62
2023/05/09 05:10:08;;;;;;;7.80;2.45;;;;;;;;;;5065972;28;20052;-62
2023/05/09 05:12:37;;;;;;;7.93;2.60;;;;;;;;;;5063181;28;20051;-67
2023/05/09 05:15:06;;;;;;;8.15;2.40;;;;;;;;;;5059381;28;20052;-64
2023/05/09 05:17:35;;;;;;;4.50;2.15;;;;;;;;;;5068882;28;20536;-63
2023/05/09 05:20:05;;;;;;;8.02;2.75;;;;;;;;;;5059990;28;20128;-63
2023/05/09 05:22:34;;;;;;;8.43;2.80;;;;;;;;;;5069334;28;20047;-62
2023/05/09 05:25:03;;;;;;;6.70;3.00;;;;;;;;;;5066446;28;20052;-64
2023/05/09 05:27:32;;;;;;;2.65;1.55;;;;;;;;;;5057103;28;20085;-62
2023/05/09 05:30:02;;;;;;;11.05;2.58;;;;;;;;;;5064334;28;20502;-63
2023/05/09 05:32:30;;;;;;;9.77;2.05;;;;;;;;;;5067968;28;20083;-62
2023/05/09 05:34:58;;;;;;;4.18;1.63;;;;;;;;;;5068659;28;20286;-63
2023/05/09 05:37:27;;;;;;;6.03;2.63;;;;;;;;;;5069475;28;20123;-63
2023/05/09 05:39:55;;;;;;;16.45;2.22;;;;;;;;;;5069022;28;20056;-63
2023/05/09 05:42:23;;;;;;;5.78;2.65;;;;;;;;;;5070521;28;20048;-63
2023/05/09 05:44:51;;;;;;;6.55;1.67;;;;;;;;;;5071369;28;20044;-63
2023/05/09 05:47:21;;;;;;;3.40;1.83;;;;;;;;;;5071308;28;20052;-63
2023/05/09 05:49:50;;;;;;;4.72;1.65;;;;;;;;;;5070044;28;20052;-63
2023/05/09 05:52:18;;;;;;;3.67;1.55;;;;;;;;;;5071703;28;20052;-63
2023/05/09 05:54:48;;;;;;;3.78;1.60;;;;;;;;;;5067692;28;20055;-62
2023/05/09 05:57:16;;;;;;;6.55;2.58;;;;;;;;;;5070814;28;20502;-62
2023/05/09 05:59:44;;;;;;;2.92;1.70;;;;;;;;;;5071930;28;20071;-64
2023/05/09 06:02:13;;;;;;;7.07;3.10;;;;;;;;;;5072656;28;20048;-62
2023/05/09 06:04:42;;;;;;;5.13;2.55;;;;;;;;;;5071139;28;20469;-63
2023/05/09 06:07:11;;;;;;;4.18;1.92;;;;;;;;;;5071445;28;20051;-64
2023/05/09 06:09:39;;;;;;;3.60;2.22;;;;;;;;;;5073093;28;20060;-63
2023/05/09 06:12:08;;;;;;;4.43;1.85;;;;;;;;;;5071624;28;20055;-63
2023/05/09 06:14:36;;;;;;;5.97;3.17;;;;;;;;;;5063840;28;20044;-63
2023/05/09 06:17:04;;;;;;;8.77;2.35;;;;;;;;;;5068017;28;20055;-62
2023/05/09 06:19:33;;;;;;;5.13;2.65;;;;;;;;;;5064073;28;20051;-64
2023/05/09 06:22:03;;;;;;;5.72;2.58;;;;;;;;;;5077153;28;20082;-63
2023/05/09 06:24:31;;;;;;;3.50;1.67;;;;;;;;;;5077126;28;20557;-63
2023/05/09 06:27:04;;;;;;;2.22;1.55;;;;;;;;;;5067146;28;20110;-64
2023/05/09 06:29:32;;;;;;;5.53;2.63;;;;;;;;;;5068111;28;20107;-63
2023/05/09 06:32:00;;;;;;;4.43;2.20;;;;;;;;;;5070992;28;20052;-63
2023/05/09 06:34:29;;;;;;;8.73;2.75;;;;;;;;;;5070128;28;20123;-63
2023/05/09 06:36:57;;;;;;;3.75;2.05;;;;;;;;;;5071322;28;20048;-64
2023/05/09 06:39:27;;;;;;;6.68;2.00;;;;;;;;;;5067086;28;20052;-64
2023/05/09 06:41:55;;;;;;;6.32;2.58;;;;;;;;;;5064928;28;20060;-63
2023/05/09 06:44:23;;;;;;;7.32;2.55;;;;;;;;;;5069413;28;20040;-63
2023/05/09 06:46:52;;;;;;;4.50;2.15;;;;;;;;;;5071716;28;20135;-64
2023/05/09 06:49:20;;;;;;;6.43;2.50;;;;;;;;;;5069731;28;20386;-63
2023/05/09 06:51:48;;;;;;;6.20;2.05;;;;;;;;;;5070785;28;20049;-64
2023/05/09 06:54:17;;;;;;;4.75;1.42;;;;;;;;;;5071547;28;20041;-64
2023/05/09 06:56:46;;;;;;;3.38;2.20;;;;;;;;;;5069482;28;20078;-63
2023/05/09 06:59:15;;;;;;;3.42;1.70;;;;;;;;;;5062484;28;20528;-64
2023/05/09 07:01:43;;;;;;;3.42;1.23;;;;;;;;;;5064791;28;20051;-63
2023/05/09 07:04:12;;;;;;;3.80;2.08;;;;;;;;;;5065934;28;20049;-67
2023/05/09 07:06:40;;;;;;;3.80;2.28;;;;;;;;;;5064683;28;20470;-64
2023/05/09 07:09:08;;;;;;;3.58;1.77;;;;;;;;;;5064663;28;20040;-65
2023/05/09 07:11:37;;;;;;;5.30;1.73;;;;;;;;;;5064991;28;20247;-64
2023/05/09 07:14:07;;;;;;;4.75;2.67;;;;;;;;;;5062737;28;20144;-63
2023/05/09 07:16:35;;;;;;;5.40;2.40;;;;;;;;;;5065448;28;20048;-64
2023/05/09 07:19:05;;;;;;;3.25;1.80;;;;;;;;;;5067638;28;20135;-64
2023/05/09 07:21:33;;;;;;;5.18;2.65;;;;;;;;;;5062398;28;20087;-65
2023/05/09 07:24:02;;;;;;;7.25;3.20;;;;;;;;;;5064381;28;20050;-63
2023/05/09 07:26:30;;;;;;;6.72;2.20;;;;;;;;;;5064496;28;20508;-63
2023/05/09 07:28:59;;;;;;;5.00;1.75;;;;;;;;;;5064721;28;20538;-64
2023/05/09 07:31:28;;;;;;;6.13;2.38;;;;;;;;;;5062848;28;20045;-64
2023/05/09 07:33:57;;;;;;;6.00;2.10;;;;;;;;;;5064699;28;20040;-66
2023/05/09 07:36:25;;;;;;;5.68;2.38;;;;;;;;;;5061365;28;20048;-64
2023/05/09 07:38:54;;;;;;;7.78;2.80;;;;;;;;;;5064873;28;20044;-64
2023/05/09 07:41:22;;;;;;;7.57;3.08;;;;;;;;;;5061900;28;20043;-66
2023/05/09 07:43:50;;;;;;;5.60;2.65;;;;;;;;;;5062061;28;20048;-65
2023/05/09 07:46:19;;;;;;;9.18;2.88;;;;;;;;;;5064079;28;20060;-64
2023/05/09 07:48:49;;;;;;;6.60;2.42;;;;;;;;;;5064884;28;20736;-64
2023/05/09 07:51:17;;;;;;;6.05;3.38;;;;;;;;;;5063256;28;20119;-65
2023/05/09 07:53:46;;;;;;;5.47;2.70;;;;;;;;;;5064682;28;20045;-65
2023/05/09 07:56:14;;;;;;;4.95;2.53;;;;;;;;;;5063343;28;20044;-66
2023/05/09 07:58:42;;;;;;;4.43;2.60;;;;;;;;;;5066020;28;20057;-64
2023/05/09 08:01:11;;;;;;;7.78;2.95;;;;;;;;;;5065234;28;20131;-64
2023/05/09 08:03:39;;;;;;;6.32;2.47;;;;;;;;;;5063828;28;20498;-64
2023/05/09 08:06:10;;;;;;;5.78;3.03;;;;;;;;;;5062183;28;20048;-63
2023/05/09 08:08:38;;;;;;;6.22;3.30;;;;;;;;;;5062084;28;20124;-65
2023/05/09 08:11:06;;;;;;;6.50;2.55;;;;;;;;;;5064770;28;20412;-64
2023/05/09 08:13:35;;;;;;;7.93;2.90;;;;;;;;;;5059734;28;20044;-64
2023/05/09 08:16:03;;;;;;;6.32;2.38;;;;;;;;;;5061100;28;20180;-64
2023/05/09 08:18:32;;;;;;;9.32;2.80;;;;;;;;;;5061270;28;20070;-63
2023/05/09 08:21:00;;;;;;;7.93;3.53;;;;;;;;;;5060199;28;20055;-63
2023/05/09 08:23:30;;;;;;;4.78;2.47;;;;;;;;;;5064178;28;20049;-65
2023/05/09 08:25:58;;;;;;;10.55;3.15;;;;;;;;;;5062322;28;20063;-66
2023/05/09 08:28:27;;;;;;;5.68;2.53;;;;;;;;;;5063982;28;20041;-65
2023/05/09 08:30:56;;;;;;;7.65;2.97;;;;;;;;;;5062072;28;20045;-64
2023/05/09 08:33:25;;;;;;;5.03;2.78;;;;;;;;;;5062555;28;20078;-63
2023/05/09 08:35:55;;;;;;;9.90;3.28;;;;;;;;;;5062783;28;20492;-63
2023/05/09 08:38:24;;;;;;;4.20;2.30;;;;;;;;;;5063123;28;20537;-63
2023/05/09 08:40:53;;;;;;;7.70;2.63;;;;;;;;;;5061354;28;20075;-65
2023/05/09 08:43:24;;;;;;;4.55;2.40;;;;;;;;;;5063592;28;20048;-64
2023/05/09 08:45:54;;;;;;;5.22;2.38;;;;;;;;;;5063391;28;20415;-63
2023/05/09 08:48:23;;;;;;;8.45;3.22;;;;;;;;;;5062048;28;20051;-64
2023/05/09 08:50:51;;;;;;;5.75;2.60;;;;;;;;;;5061338;28;20063;-64
2023/05/09 08:53:21;;;;;;;8.02;2.40;;;;;;;;;;5059282;28;20076;-64
2023/05/09 08:55:51;;;;;;;5.97;2.65;;;;;;;;;;5062979;28;20504;-65
2023/05/09 08:58:21;;;;;;;8.88;2.72;;;;;;;;;;5062347;28;20041;-65
2023/05/09 09:00:50;;;;;;;4.70;2.22;;;;;;;;;;5060397;28;20048;-64
2023/05/09 09:03:18;;;;;;;5.25;2.30;;;;;;;;;;5063307;28;20131;-65
2023/05/09 09:05:47;;;;;;;7.68;2.97;;;;;;;;;;5057788;28;20135;-67
2023/05/09 09:08:16;;;;;;;4.63;2.20;;;;;;;;;;5059254;28;20083;-64
2023/05/09 09:10:46;;;;;;;4.32;1.90;;;;;;;;;;5056898;28;21812;-64
2023/05/09 09:13:15;;;;;;;7.20;2.90;;;;;;;;;;5062147;28;20048;-65
2023/05/09 09:15:46;;;;;;;6.25;2.90;;;;;;;;;;5059523;28;20052;-66
2023/05/09 09:18:18;;;;;;;6.72;2.70;;;;;;;;;;5066563;28;20496;-64
2023/05/09 09:20:48;;;;;;;6.15;2.45;;;;;;;;;;5063689;28;20136;-66
2023/05/09 09:23:19;;;;;;;5.75;2.95;;;;;;;;;;5068460;28;20044;-65
2023/05/09 09:25:47;;;;;;;7.10;2.63;;;;;;;;;;5064442;28;20045;-67
2023/05/09 09:28:16;;;;;;;7.38;2.75;;;;;;;;;;5066860;28;20088;-65
2023/05/09 09:30:47;;;;;;;6.32;2.60;;;;;;;;;;5064104;28;20497;-64
2023/05/09 09:33:20;;;;;;;6.72;3.00;;;;;;;;;;5067774;28;20047;-66
2023/05/09 09:35:49;;;;;;;5.82;2.65;;;;;;;;;;5064756;28;20048;-67
2023/05/09 09:38:18;;;;;;;6.50;2.63;;;;;;;;;;5065684;28;20141;-66
2023/05/09 09:40:53;;;;;;;5.28;1.98;;;;;;;;;;5062075;28;20106;-67
2023/05/09 09:43:27;;;;;;;5.22;2.30;;;;;;;;;;5066850;28;20683;-66
2023/05/09 09:45:57;;;;;;;9.25;3.20;;;;;;;;;;5065460;28;20099;-67
2023/05/09 09:48:26;;;;;;;6.60;2.15;;;;;;;;;;5067083;28;20059;-67
2023/05/09 09:50:55;;;;;;;6.70;2.33;;;;;;;;;;5068796;28;20048;-68
2023/05/09 09:53:24;;;;;;;6.13;2.92;;;;;;;;;;5064711;28;20041;-66
2023/05/09 09:55:52;;;;;;;4.57;2.28;;;;;;;;;;5063311;28;20049;-66
2023/05/09 09:58:23;;;;;;;6.32;2.67;;;;;;;;;;5067444;28;20096;-67
2023/05/09 10:01:06;;;;;;;5.15;2.17;;;;;;;;;;5066277;28;20523;-66
2023/05/09 10:03:36;;;;;;;5.00;1.83;;;;;;;;;;5061155;28;20063;-66
2023/05/09 10:06:04;;;;;;;4.22;2.10;;;;;;;;;;5068453;28;20036;-67
2023/05/09 10:08:32;;;;;;;4.72;2.65;;;;;;;;;;5064836;28;20389;-67
2023/05/09 10:11:01;;;;;;;8.80;2.22;;;;;;;;;;5064111;28;20052;-67
2023/05/09 10:13:30;;;;;;;9.18;2.75;;;;;;;;;;5066190;28;20574;-67
2023/05/09 10:15:59;;;;;;;6.30;2.92;;;;;;;;;;5064039;28;21070;-66
2023/05/09 10:18:30;;;;;;;8.85;3.20;;;;;;;;;;5064996;28;20127;-67
2023/05/09 10:21:02;;;;;;;7.10;2.33;;;;;;;;;;5065439;28;20052;-67
2023/05/09 10:23:31;;;;;;;4.70;2.55;;;;;;;;;;5063199;28;20094;-67
2023/05/09 10:26:06;;;;;;;6.75;2.58;;;;;;;;;;5067261;28;20144;-66
2023/05/09 10:28:35;;;;;;;4.78;2.75;;;;;;;;;;5063476;28;20400;-67
2023/05/09 10:31:07;;;;;;;5.85;1.85;;;;;;;;;;5062978;28;20053;-68
2023/05/09 10:33:39;;;;;;;5.82;2.70;;;;;;;;;;5064192;28;20044;-68
2023/05/09 10:36:08;;;;;;;9.10;2.70;;;;;;;;;;5065565;28;20057;-67
2023/05/09 10:38:37;;;;;;;4.85;2.72;;;;;;;;;;5062610;28;20097;-67
2023/05/09 10:41:06;;;;;;;7.05;2.95;;;;;;;;;;5066568;28;20040;-68
2023/05/09 10:43:35;;;;;;;6.05;2.97;;;;;;;;;;5063972;28;20419;-68
2023/05/09 10:46:04;;;;;;;5.18;2.25;;;;;;;;;;5060893;28;20508;-67
2023/05/09 10:48:32;;;;;;;6.03;2.85;;;;;;;;;;5062268;28;20868;-67
2023/05/09 10:51:03;;;;;;;4.28;2.47;;;;;;;;;;5065171;28;20045;-67
2023/05/09 10:53:54;;;;;;;7.28;3.10;;;;;;;;;;5065527;28;20051;-69
2023/05/09 10:56:23;;;;;;;8.20;2.88;;;;;;;;;;5060500;28;20044;-68
2023/05/09 10:58:52;;;;;;;6.72;3.03;;;;;;;;;;5064896;28;20049;-68
2023/05/09 11:01:31;;;;;;;4.65;2.58;;;;;;;;;;5059198;28;20137;-68
2023/05/09 11:04:00;;;;;;;5.85;2.85;;;;;;;;;;5066229;28;20060;-67
2023/05/09 11:06:44;;;;;;;7.38;2.90;;;;;;;;;;5061221;28;20041;-67
2023/05/09 11:09:28;;;;;;;5.32;2.50;;;;;;;;;;5064708;28;20152;-67
2023/05/09 11:11:57;;;;;;;6.55;2.50;;;;;;;;;;5062262;28;20036;-67
2023/05/09 11:14:32;;;;;;;10.35;2.88;;;;;;;;;;5063916;28;20057;-68
2023/05/09 11:17:03;;;;;;;4.50;3.03;;;;;;;;;;5061269;28;20056;-67
2023/05/09 11:19:35;;;;;;;4.45;2.10;;;;;;;;;;5064115;28;20371;-67
2023/05/09 11:22:11;;;;;;;7.18;3.58;;;;;;;;;;5065573;28;20041;-67
2023/05/09 11:24:40;;;;;;;8.60;3.45;;;;;;;;;;5063909;28;20156;-67
2023/05/09 11:27:15;;;;;;;8.80;2.67;;;;;;;;;;5061764;28;20056;-67
2023/05/09 11:29:44;;;;;;;5.88;3.03;;;;;;;;;;5065508;28;20109;-68
2023/05/09 11:32:15;;;;;;;6.53;3.13;;;;;;;;;;5061660;28;20493;-68
2023/05/09 11:34:44;;;;;;;7.18;3.28;;;;;;;;;;5064979;28;20052;-68
2023/05/09 11:37:16;;;;;;;6.85;3.13;;;;;;;;;;5063480;28;20132;-68
2023/05/09 11:39:58;;;;;;;6.95;3.05;;;;;;;;;;5063557;28;20838;-68
2023/05/09 11:42:26;;;;;;;6.43;3.17;;;;;;;;;;5062327;28;20047;-68
2023/05/09 11:44:55;;;;;;;8.73;2.75;;;;;;;;;;5061510;28;20489;-69
2023/05/09 11:47:23;;;;;;;9.75;3.70;;;;;;;;;;5061051;28;20069;-68
2023/05/09 11:49:52;;;;;;;5.82;3.10;;;;;;;;;;5060988;28;20044;-69
2023/05/09 11:52:22;;;;;;;9.13;3.50;;;;;;;;;;5060542;28;20048;-68
2023/05/09 11:54:51;;;;;;;5.45;2.78;;;;;;;;;;5060551;28;20478;-68
2023/05/09 11:57:19;;;;;;;8.27;2.80;;;;;;;;;;5061340;28;20863;-68
2023/05/09 11:59:48;;;;;;;7.97;3.45;;;;;;;;;;5059929;28;20074;-68
2023/05/09 12:02:17;;;;;;;6.32;2.67;;;;;;;;;;5064873;28;20485;-68
2023/05/09 12:04:45;;;;;;;5.15;2.80;;;;;;;;;;5062476;28;20065;-68
2023/05/09 12:07:15;;;;;;;7.00;3.08;;;;;;;;;;5060577;28;20172;-69
2023/05/09 12:09:45;;;;;;;7.97;3.47;;;;;;;;;;5064358;28;20456;-68
2023/05/09 12:12:16;;;;;;;6.22;2.95;;;;;;;;;;5060876;28;20199;-68
2023/05/09 12:14:45;;;;;;;6.47;3.15;;;;;;;;;;5064196;28;20049;-69
2023/05/09 12:17:13;;;;;;;7.95;3.25;;;;;;;;;;5061512;28;20161;-68
2023/05/09 12:19:41;;;;;;;5.25;2.92;;;;;;;;;;5065514;28;20044;-68
2023/05/09 12:22:10;;;;;;;6.90;3.13;;;;;;;;;;5057017;28;20047;-68
2023/05/09 12:24:38;;;;;;;4.63;2.40;;;;;;;;;;5061607;28;20405;-68
2023/05/09 12:27:08;;;;;;;6.20;3.03;;;;;;;;;;5063365;28;20051;-68
2023/05/09 12:29:37;;;;;;;6.95;2.83;;;;;;;;;;5062875;28;20063;-68
2023/05/09 12:32:05;;;;;;;4.78;3.53;;;;;;;;;;5059381;28;20055;-68
2023/05/09 12:34:34;;;;;;;5.13;2.47;;;;;;;;;;5060808;28;20080;-68
2023/05/09 12:37:02;;;;;;;6.15;3.10;;;;;;;;;;5063500;28;20131;-68
2023/05/09 12:39:31;;;;;;;6.30;2.85;;;;;;;;;;5063796;28;20148;-68
2023/05/09 12:41:59;;;;;;;6.72;3.40;;;;;;;;;;5064320;28;20064;-68
2023/05/09 12:44:30;;;;;;;5.88;2.75;;;;;;;;;;5063781;28;20037;-68
2023/05/09 12:47:00;;;;;;;8.27;3.42;;;;;;;;;;5061504;28;20053;-68
2023/05/09 12:49:28;;;;;;;5.07;2.75;;;;;;;;;;5062520;28;20043;-68
2023/05/09 12:51:57;;;;;;;7.32;3.40;;;;;;;;;;5064079;28;20584;-68
2023/05/09 12:54:27;;;;;;;5.53;2.72;;;;;;;;;;5063477;28;20477;-68
2023/05/09 12:56:57;;;;;;;7.75;3.65;;;;;;;;;;5065359;28;20109;-68
2023/05/09 12:59:27;;;;;;;9.00;2.90;;;;;;;;;;5061922;28;20051;-69
2023/05/09 13:01:58;;;;;;;6.70;2.72;;;;;;;;;;5060718;28;20056;-68
2023/05/09 13:04:27;;;;;;;6.60;3.25;;;;;;;;;;5057436;28;20056;-69
2023/05/09 13:06:56;;;;;;;10.57;3.90;;;;;;;;;;5060879;28;20052;-69
2023/05/09 13:09:26;;;;;;;14.15;2.63;;;;;;;;;;5061267;28;20151;-69
2023/05/09 13:11:54;;;;;;;5.95;2.88;;;;;;;;;;5064966;28;20053;-68
2023/05/09 13:14:23;;;;;;;6.22;2.63;;;;;;;;;;5060527;28;20099;-68
2023/05/09 13:16:51;;;;;;;5.03;2.28;;;;;;;;;;5060358;28;20045;-68
2023/05/09 13:19:21;;;;;;;5.70;2.40;;;;;;;;;;5059644;28;20508;-68
2023/05/09 13:21:51;;;;;;;7.88;3.53;;;;;;;;;;5060215;28;20037;-68
2023/05/09 13:24:19;;;;;;;7.72;2.65;;;;;;;;;;5061333;28;20052;-68
2023/05/09 13:26:47;;;;;;;7.40;3.00;;;;;;;;;;5060686;28;20049;-68
2023/05/09 13:29:16;;;;;;;8.23;3.42;;;;;;;;;;5059846;28;20041;-68
2023/05/09 13:31:44;;;;;;;4.65;2.53;;;;;;;;;;5060782;28;20656;-68
2023/05/09 13:34:12;;;;;;;5.38;2.72;;;;;;;;;;5061028;28;21201;-68
2023/05/09 13:36:42;;;;;;;5.50;3.03;;;;;;;;;;5060900;28;20494;-68
2023/05/09 13:39:10;;;;;;;6.75;3.13;;;;;;;;;;5062241;28;20045;-68
2023/05/09 13:41:39;;;;;;;4.30;2.35;;;;;;;;;;5060062;28;20524;-68
2023/05/09 13:44:07;;;;;;;6.38;2.20;;;;;;;;;;5060776;28;20045;-69
2023/05/09 13:46:35;;;;;;;4.82;2.17;;;;;;;;;;5062145;28;20063;-68
2023/05/09 13:49:04;;;;;;;5.45;2.78;;;;;;;;;;5062100;28;20055;-68
2023/05/09 13:51:33;;;;;;;4.15;2.38;;;;;;;;;;5062004;28;20490;-68
2023/05/09 13:54:07;;;;;;;4.63;2.42;;;;;;;;;;5062048;28;20048;-68
2023/05/09 13:56:35;;;;;;;7.07;3.13;;;;;;;;;;5057295;28;20044;-68
2023/05/09 13:59:04;;;;;;;7.15;2.80;;;;;;;;;;5056894;28;20059;-67
2023/05/09 14:01:32;;;;;;;5.95;2.55;;;;;;;;;;5059754;28;20418;-68
2023/05/09 14:04:00;;;;;;;4.32;2.20;;;;;;;;;;5063279;28;20048;-68
2023/05/09 14:06:29;;;;;;;5.57;2.53;;;;;;;;;;5064023;28;20040;-67
2023/05/09 14:08:57;;;;;;;4.72;2.38;;;;;;;;;;5064710;28;20448;-67
2023/05/09 14:11:27;;;;;;;5.07;2.67;;;;;;;;;;5063827;28;20053;-69
2023/05/09 14:13:55;;;;;;;2.78;2.03;;;;;;;;;;5066118;28;20469;-69
2023/05/09 14:16:24;;;;;;;5.05;2.17;;;;;;;;;;5059267;28;20590;-69
2023/05/09 14:18:52;;;;;;;5.28;2.50;;;;;;;;;;5065186;28;20048;-67
2023/05/09 14:21:21;;;;;;;7.18;2.35;;;;;;;;;;5067948;28;20071;-67
2023/05/09 14:23:50;;;;;;;4.55;2.47;;;;;;;;;;5062177;28;20052;-68
2023/05/09 14:26:19;;;;;;;5.63;2.65;;;;;;;;;;5062963;28;20048;-69
2023/05/09 14:28:48;;;;;;;5.47;2.28;;;;;;;;;;5067908;28;20127;-68
2023/05/09 14:31:17;;;;;;;4.72;1.85;;;;;;;;;;5066102;28;20436;-68
2023/05/09 14:33:45;;;;;;;5.30;2.20;;;;;;;;;;5061195;28;20056;-68
2023/05/09 14:36:14;;;;;;;4.97;2.38;;;;;;;;;;5060612;28;20070;-68
2023/05/09 14:38:43;;;;;;;3.90;2.10;;;;;;;;;;5065067;28;20045;-68
2023/05/09 14:41:11;;;;;;;4.80;2.08;;;;;;;;;;5065902;28;20080;-68
2023/05/09 14:43:39;;;;;;;4.38;2.15;;;;;;;;;;5062910;28;20113;-69
2023/05/09 14:46:09;;;;;;;5.30;2.33;;;;;;;;;;5064694;28;20475;-68
2023/05/09 14:48:37;;;;;;;4.00;2.20;;;;;;;;;;5063276;28;20044;-68
2023/05/09 14:51:06;;;;;;;3.88;1.85;;;;;;;;;;5064156;28;20036;-68
2023/05/09 14:53:38;;;;;;;4.75;1.83;;;;;;;;;;5062257;28;20475;-68
2023/05/09 14:56:07;;;;;;;3.95;2.08;;;;;;;;;;5062235;28;20048;-68